createdAt,value
2022-09-11T00:00:22.149Z,88.37
2022-09-11T00:01:22.144Z,89.07
2022-09-11T00:02:22.186Z,88.26
2022-09-11T00:03:22.134Z,88.26
2022-09-11T00:04:22.174Z,88.57
2022-09-11T00:05:22.160Z,87.86
2022-09-11T00:06:29.315Z,88.57
2022-09-11T00:07:22.099Z,88.57
2022-09-11T00:08:22.064Z,88.47
2022-09-11T00:09:22.070Z,88.17
2022-09-11T00:10:22.040Z,88.37
2022-09-11T00:11:22.058Z,88.37
2022-09-11T00:12:22.037Z,88.06
2022-09-11T00:13:22.017Z,89.07
2022-09-11T00:14:22.025Z,89.17
2022-09-11T00:15:22.014Z,88.97
2022-09-11T00:16:22.004Z,88.47
2022-09-11T00:17:21.993Z,89.17
2022-09-11T00:18:21.969Z,89.48
2022-09-11T00:19:21.964Z,88.37
2022-09-11T00:20:21.959Z,88.77
2022-09-11T00:21:21.971Z,88.97
2022-09-11T00:22:21.941Z,89.07
2022-09-11T00:23:21.934Z,88.47
2022-09-11T00:24:21.940Z,88.06
2022-09-11T00:25:21.897Z,88.87
2022-09-11T00:26:21.893Z,88.83
2022-09-11T00:27:21.908Z,88.32
2022-09-11T00:28:21.883Z,88.63
2022-09-11T00:29:21.876Z,87.82
2022-09-11T00:30:21.866Z,87.82
2022-09-11T00:31:21.906Z,87.52
2022-09-11T00:32:21.816Z,87.21
2022-09-11T00:33:21.844Z,87.41
2022-09-11T00:34:21.805Z,88.02
2022-09-11T00:35:21.818Z,88.63
2022-09-11T00:36:21.809Z,87.62
2022-09-11T00:37:21.802Z,87.32
2022-09-11T00:38:21.784Z,87.82
2022-09-11T00:39:21.872Z,87.62
2022-09-11T00:40:21.746Z,87.82
2022-09-11T00:41:21.773Z,86.41
2022-09-11T00:42:21.733Z,86.30
2022-09-11T00:43:21.718Z,87.32
2022-09-11T00:44:21.704Z,86.30
2022-09-11T00:45:21.704Z,87.21
2022-09-11T00:46:21.709Z,88.23
2022-09-11T00:47:21.694Z,87.12
2022-09-11T00:48:21.697Z,85.90
2022-09-11T00:49:21.662Z,87.21
2022-09-11T00:50:21.637Z,86.10
2022-09-11T00:51:21.658Z,85.70
2022-09-11T00:52:21.654Z,86.21
2022-09-11T00:53:21.652Z,85.40
2022-09-11T00:54:21.604Z,85.40
2022-09-11T00:55:21.620Z,86.21
2022-09-11T00:56:21.583Z,86.10
2022-09-11T00:57:21.626Z,85.19
2022-09-11T00:58:21.586Z,85.70
2022-09-11T00:59:21.575Z,86.30
2022-09-11T01:00:21.554Z,86.00
2022-09-11T01:01:21.553Z,86.21
2022-09-11T01:02:25.487Z,84.99
2022-09-11T01:03:21.543Z,85.70
2022-09-11T01:04:21.507Z,85.66
2022-09-11T01:05:21.499Z,85.56
2022-09-11T01:06:21.489Z,84.95
2022-09-11T01:07:21.528Z,85.16
2022-09-11T01:08:21.459Z,85.56
2022-09-11T01:09:21.485Z,84.45
2022-09-11T01:10:21.439Z,83.84
2022-09-11T01:11:21.444Z,84.15
2022-09-11T01:12:21.482Z,85.05
2022-09-11T01:13:21.424Z,84.65
2022-09-11T01:14:21.428Z,84.55
2022-09-11T01:15:21.435Z,83.64
2022-09-11T01:16:21.444Z,84.75
2022-09-11T01:17:21.384Z,84.71
2022-09-11T01:18:21.429Z,84.51
2022-09-11T01:19:21.376Z,86.33
2022-09-11T01:20:21.360Z,84.61
2022-09-11T01:21:21.367Z,84.81
2022-09-11T01:22:21.360Z,83.70
2022-09-11T01:23:21.332Z,83.80
2022-09-11T01:24:21.326Z,83.80
2022-09-11T01:25:21.309Z,83.34
2022-09-11T01:26:21.291Z,84.15
2022-09-11T01:27:21.309Z,84.55
2022-09-11T01:28:21.266Z,86.07
2022-09-11T01:29:21.269Z,84.15
2022-09-11T01:30:21.273Z,84.95
2022-09-11T01:31:21.286Z,84.85
2022-09-11T01:32:21.227Z,85.05
2022-09-11T01:33:21.232Z,84.05
2022-09-11T01:34:21.232Z,85.46
2022-09-11T01:35:21.229Z,85.62
2022-09-11T01:36:21.217Z,84.81
2022-09-11T01:37:21.192Z,84.91
2022-09-11T01:38:21.221Z,84.01
2022-09-11T01:39:21.228Z,84.61
2022-09-11T01:40:21.185Z,84.61
2022-09-11T01:41:21.177Z,83.91
2022-09-11T01:42:21.154Z,83.80
2022-09-11T01:43:21.139Z,84.01
2022-09-11T01:44:21.129Z,83.84
2022-09-11T01:45:21.331Z,85.42
2022-09-11T01:46:21.106Z,84.35
2022-09-11T01:47:21.118Z,84.15
2022-09-11T01:48:21.323Z,84.75
2022-09-11T01:49:21.074Z,85.05
2022-09-11T01:50:21.080Z,85.66
2022-09-11T01:51:21.050Z,86.16
2022-09-11T01:52:21.056Z,86.36
2022-09-11T01:53:21.070Z,86.47
2022-09-11T01:54:21.057Z,86.36
2022-09-11T01:55:21.037Z,86.07
2022-09-11T01:56:20.993Z,86.07
2022-09-11T01:57:21.001Z,87.07
2022-09-11T01:58:20.989Z,86.57
2022-09-11T01:59:21.012Z,85.70
2022-09-11T02:00:20.998Z,85.30
2022-09-11T02:01:20.953Z,85.46
2022-09-11T02:02:20.988Z,86.91
2022-09-11T02:03:20.934Z,86.30
2022-09-11T02:04:20.963Z,86.91
2022-09-11T02:05:20.942Z,86.61
2022-09-11T02:06:20.905Z,86.51
2022-09-11T02:07:20.897Z,86.71
2022-09-11T02:08:20.879Z,86.81
2022-09-11T02:09:20.902Z,87.41
2022-09-11T02:10:20.883Z,87.76
2022-09-11T02:11:20.890Z,87.76
2022-09-11T02:12:20.867Z,87.96
2022-09-11T02:13:20.867Z,87.86
2022-09-11T02:14:20.837Z,87.96
2022-09-11T02:15:20.851Z,88.26
2022-09-11T02:16:20.979Z,87.86
2022-09-11T02:17:20.821Z,87.32
2022-09-11T02:18:20.785Z,87.12
2022-09-11T02:19:20.773Z,87.12
2022-09-11T02:20:20.768Z,88.43
2022-09-11T02:21:20.784Z,87.62
2022-09-11T02:22:20.783Z,87.21
2022-09-11T02:23:20.767Z,87.92
2022-09-11T02:24:20.729Z,87.52
2022-09-11T02:25:20.738Z,87.62
2022-09-11T02:26:20.713Z,87.21
2022-09-11T02:27:20.722Z,87.52
2022-09-11T02:28:20.739Z,87.01
2022-09-11T02:29:20.694Z,87.52
2022-09-11T02:30:20.684Z,87.21
2022-09-11T02:31:20.685Z,86.61
2022-09-11T02:32:20.662Z,86.71
2022-09-11T02:33:20.646Z,86.61
2022-09-11T02:34:20.640Z,87.41
2022-09-11T02:35:20.617Z,87.98
2022-09-11T02:36:20.609Z,87.58
2022-09-11T02:37:20.598Z,86.97
2022-09-11T02:38:20.605Z,85.92
2022-09-11T02:39:20.598Z,86.02
2022-09-11T02:40:20.566Z,86.53
2022-09-11T02:41:20.556Z,85.72
2022-09-11T02:42:20.542Z,85.22
2022-09-11T02:43:20.554Z,85.92
2022-09-11T02:44:20.556Z,85.86
2022-09-11T02:45:20.554Z,86.07
2022-09-11T02:46:20.520Z,85.76
2022-09-11T02:47:20.499Z,85.96
2022-09-11T02:48:20.483Z,86.27
2022-09-11T02:49:20.526Z,85.56
2022-09-11T02:50:20.470Z,85.96
2022-09-11T02:51:20.456Z,87.88
2022-09-11T02:52:20.451Z,86.07
2022-09-11T02:53:20.459Z,86.47
2022-09-11T02:54:20.459Z,86.87
2022-09-11T02:55:20.430Z,87.07
2022-09-11T02:56:20.449Z,86.87
2022-09-11T02:57:20.426Z,86.63
2022-09-11T02:58:20.398Z,85.92
2022-09-11T02:59:20.403Z,84.61
2022-09-11T03:00:20.380Z,83.30
2022-09-11T03:01:20.353Z,85.11
2022-09-11T03:02:20.425Z,84.41
2022-09-11T03:03:20.345Z,84.91
2022-09-11T03:04:20.332Z,83.60
2022-09-11T03:05:20.418Z,84.81
2022-09-11T03:06:20.308Z,84.51
2022-09-11T03:07:20.346Z,84.71
2022-09-11T03:08:20.283Z,83.95
2022-09-11T03:09:20.309Z,84.15
2022-09-11T03:10:20.276Z,85.36
2022-09-11T03:11:20.256Z,84.85
2022-09-11T03:12:20.263Z,85.25
2022-09-11T03:13:20.247Z,83.74
2022-09-11T03:14:20.227Z,84.15
2022-09-11T03:15:20.212Z,83.64
2022-09-11T03:16:20.353Z,82.33
2022-09-11T03:17:20.206Z,83.64
2022-09-11T03:18:20.191Z,83.95
2022-09-11T03:19:20.175Z,82.93
2022-09-11T03:20:20.213Z,85.30
2022-09-11T03:21:20.189Z,84.75
2022-09-11T03:22:20.155Z,85.70
2022-09-11T03:23:20.172Z,85.19
2022-09-11T03:24:20.130Z,85.30
2022-09-11T03:25:20.148Z,84.89
2022-09-11T03:26:20.111Z,86.27
2022-09-11T03:27:20.111Z,84.45
2022-09-11T03:28:20.099Z,83.95
2022-09-11T03:29:20.098Z,83.64
2022-09-11T03:30:20.110Z,85.80
2022-09-11T03:31:20.132Z,83.64
2022-09-11T03:32:20.045Z,84.05
2022-09-11T03:33:20.037Z,83.44
2022-09-11T03:34:20.037Z,82.67
2022-09-11T03:35:20.036Z,84.39
2022-09-11T03:36:20.019Z,85.80
2022-09-11T03:37:20.048Z,86.21
2022-09-11T03:38:20.048Z,86.04
2022-09-11T03:39:19.992Z,85.54
2022-09-11T03:40:19.969Z,86.35
2022-09-11T03:41:19.961Z,86.55
2022-09-11T03:42:19.965Z,85.74
2022-09-11T03:43:19.963Z,85.24
2022-09-11T03:44:19.953Z,85.03
2022-09-11T03:45:19.913Z,86.45
2022-09-11T03:46:19.926Z,87.72
2022-09-11T03:47:19.919Z,85.90
2022-09-11T03:48:19.893Z,84.69
2022-09-11T03:49:19.901Z,84.79
2022-09-11T03:50:19.905Z,86.30
2022-09-11T03:51:19.853Z,84.39
2022-09-11T03:52:19.883Z,84.35
2022-09-11T03:53:19.845Z,85.16
2022-09-11T03:54:19.851Z,86.27
2022-09-11T03:55:19.810Z,84.35
2022-09-11T03:56:19.848Z,84.45
2022-09-11T03:57:19.796Z,86.07
2022-09-11T03:58:19.787Z,84.45
2022-09-11T03:59:19.800Z,83.54
2022-09-11T04:00:19.836Z,83.44
2022-09-11T04:01:19.788Z,84.25
2022-09-11T04:02:19.826Z,83.84
2022-09-11T04:03:19.767Z,84.45
2022-09-11T04:04:19.731Z,83.44
2022-09-11T04:05:19.705Z,83.74
2022-09-11T04:06:19.724Z,83.24
2022-09-11T04:07:19.716Z,83.80
2022-09-11T04:08:19.689Z,83.60
2022-09-11T04:09:19.670Z,82.79
2022-09-11T04:10:19.666Z,81.28
2022-09-11T04:11:19.668Z,82.50
2022-09-11T04:12:19.653Z,82.90
2022-09-11T04:13:19.670Z,82.73
2022-09-11T04:14:19.660Z,84.75
2022-09-11T04:15:19.610Z,83.54
2022-09-11T04:16:19.694Z,84.45
2022-09-11T04:17:19.610Z,83.00
2022-09-11T04:18:19.613Z,83.14
2022-09-11T04:19:19.572Z,82.53
2022-09-11T04:20:19.571Z,82.43
2022-09-11T04:21:19.564Z,82.53
2022-09-11T04:22:19.552Z,83.84
2022-09-11T04:23:19.543Z,83.54
2022-09-11T04:24:19.540Z,82.84
2022-09-11T04:25:19.511Z,82.73
2022-09-11T04:26:19.561Z,83.14
2022-09-11T04:27:19.501Z,83.24
2022-09-11T04:28:19.483Z,82.73
2022-09-11T04:29:19.424Z,83.44
2022-09-11T04:30:19.525Z,83.58
2022-09-11T04:31:19.541Z,83.68
2022-09-11T04:32:19.462Z,83.68
2022-09-11T04:33:19.475Z,83.58
2022-09-11T04:34:19.431Z,84.59
2022-09-11T04:35:19.395Z,84.89
2022-09-11T04:36:19.358Z,84.79
2022-09-11T04:37:19.433Z,84.89
2022-09-11T04:38:19.381Z,84.59
2022-09-11T04:39:19.371Z,85.60
2022-09-11T04:40:19.383Z,84.59
2022-09-11T04:41:19.317Z,85.10
2022-09-11T04:42:19.288Z,84.99
2022-09-11T04:43:19.318Z,84.19
2022-09-11T04:44:19.333Z,84.39
2022-09-11T04:45:19.284Z,84.59
2022-09-11T04:46:19.289Z,84.19
2022-09-11T04:47:19.249Z,84.59
2022-09-11T04:48:19.258Z,84.79
2022-09-11T04:49:19.211Z,83.84
2022-09-11T04:50:19.244Z,83.54
2022-09-11T04:51:19.201Z,83.74
2022-09-11T04:52:19.239Z,83.84
2022-09-11T04:53:19.191Z,85.05
2022-09-11T04:54:19.189Z,84.25
2022-09-11T04:55:19.170Z,84.85
2022-09-11T04:56:19.151Z,84.45
2022-09-11T04:57:19.184Z,85.16
2022-09-11T04:58:19.125Z,85.46
2022-09-11T04:59:19.124Z,84.75
2022-09-11T05:00:19.126Z,84.25
2022-09-11T05:01:19.176Z,84.09
2022-09-11T05:02:19.147Z,84.39
2022-09-11T05:03:19.084Z,85.30
2022-09-11T05:04:22.911Z,85.50
2022-09-11T05:05:19.122Z,85.30
2022-09-11T05:06:19.053Z,86.00
2022-09-11T05:07:19.062Z,86.10
2022-09-11T05:08:19.040Z,86.21
2022-09-11T05:09:19.028Z,85.90
2022-09-11T05:10:19.022Z,86.51
2022-09-11T05:11:19.033Z,85.60
2022-09-11T05:12:19.096Z,85.19
2022-09-11T05:13:19.020Z,86.51
2022-09-11T05:14:18.964Z,85.70
2022-09-11T05:15:18.954Z,85.30
2022-09-11T05:16:19.013Z,84.69
2022-09-11T05:17:18.938Z,85.40
2022-09-11T05:18:18.963Z,84.79
2022-09-11T05:19:18.911Z,85.10
2022-09-11T05:20:18.945Z,84.99
2022-09-11T05:21:18.952Z,85.10
2022-09-11T05:22:18.917Z,84.69
2022-09-11T05:23:18.881Z,85.19
2022-09-11T05:24:18.921Z,84.09
2022-09-11T05:25:18.852Z,83.58
2022-09-11T05:26:18.878Z,85.05
2022-09-11T05:27:18.860Z,83.64
2022-09-11T05:28:18.847Z,84.35
2022-09-11T05:29:18.809Z,83.54
2022-09-11T05:30:18.807Z,83.54
2022-09-11T05:31:18.877Z,83.24
2022-09-11T05:32:18.819Z,82.53
2022-09-11T05:33:18.799Z,82.64
2022-09-11T05:34:18.767Z,84.75
2022-09-11T05:35:18.754Z,84.21
2022-09-11T05:36:18.805Z,84.11
2022-09-11T05:37:18.782Z,84.51
2022-09-11T05:38:18.764Z,83.20
2022-09-11T05:39:18.777Z,81.79
2022-09-11T05:40:18.753Z,81.89
2022-09-11T05:41:18.700Z,83.20
2022-09-11T05:42:18.728Z,82.43
2022-09-11T05:43:18.690Z,83.34
2022-09-11T05:44:18.679Z,84.25
2022-09-11T05:45:18.688Z,84.15
2022-09-11T05:46:18.666Z,84.95
2022-09-11T05:47:18.671Z,84.05
2022-09-11T05:48:18.636Z,84.55
2022-09-11T05:49:18.637Z,84.95
2022-09-11T05:50:18.654Z,84.25
2022-09-11T05:51:18.619Z,83.34
2022-09-11T05:52:18.587Z,84.65
2022-09-11T05:53:18.582Z,84.95
2022-09-11T05:54:18.590Z,84.35
2022-09-11T05:55:18.558Z,83.74
2022-09-11T05:56:18.583Z,84.05
2022-09-11T05:57:18.548Z,84.75
2022-09-11T05:58:18.527Z,86.07
2022-09-11T05:59:18.529Z,84.05
2022-09-11T06:00:18.539Z,84.75
2022-09-11T06:01:18.625Z,83.84
2022-09-11T06:02:18.508Z,84.25
2022-09-11T06:03:18.479Z,84.25
2022-09-11T06:04:18.482Z,83.54
2022-09-11T06:05:18.464Z,82.73
2022-09-11T06:06:18.498Z,83.04
2022-09-11T06:07:18.430Z,83.44
2022-09-11T06:08:18.437Z,83.88
2022-09-11T06:09:18.431Z,84.09
2022-09-11T06:10:18.427Z,84.19
2022-09-11T06:11:18.411Z,84.49
2022-09-11T06:12:18.386Z,84.79
2022-09-11T06:13:18.376Z,84.79
2022-09-11T06:14:18.367Z,85.40
2022-09-11T06:15:42.943Z,85.30
2022-09-11T06:16:18.979Z,84.59
2022-09-11T06:17:18.351Z,84.69
2022-09-11T06:18:18.373Z,84.79
2022-09-11T06:19:18.354Z,84.79
2022-09-11T06:20:18.363Z,85.10
2022-09-11T06:21:18.307Z,85.40
2022-09-11T06:22:18.290Z,85.19
2022-09-11T06:23:18.276Z,85.44
2022-09-11T06:24:18.307Z,85.54
2022-09-11T06:25:18.285Z,85.94
2022-09-11T06:26:18.264Z,85.74
2022-09-11T06:27:18.275Z,85.84
2022-09-11T06:28:18.227Z,85.70
2022-09-11T06:29:18.243Z,86.00
2022-09-11T06:30:18.226Z,86.00
2022-09-11T06:31:18.209Z,86.41
2022-09-11T06:32:18.240Z,86.00
2022-09-11T06:33:18.190Z,85.60
2022-09-11T06:34:18.228Z,84.79
2022-09-11T06:35:18.167Z,85.60
2022-09-11T06:36:18.153Z,85.50
2022-09-11T06:37:18.144Z,84.79
2022-09-11T06:38:18.129Z,85.30
2022-09-11T06:39:18.140Z,85.30
2022-09-11T06:40:18.106Z,85.40
2022-09-11T06:41:18.147Z,85.10
2022-09-11T06:42:18.110Z,85.19
2022-09-11T06:43:18.065Z,84.89
2022-09-11T06:44:18.061Z,84.73
2022-09-11T06:45:18.109Z,85.24
2022-09-11T06:46:18.071Z,85.14
2022-09-11T06:47:18.101Z,86.00
2022-09-11T06:48:18.025Z,85.10
2022-09-11T06:49:18.088Z,85.40
2022-09-11T06:50:18.002Z,84.79
2022-09-11T06:51:18.000Z,84.85
2022-09-11T06:52:18.011Z,84.15
2022-09-11T06:53:17.967Z,84.25
2022-09-11T06:54:17.979Z,83.74
2022-09-11T06:55:17.946Z,83.95
2022-09-11T06:56:17.964Z,83.50
2022-09-11T06:57:17.973Z,83.30
2022-09-11T06:58:17.930Z,81.41
2022-09-11T06:59:17.933Z,79.08
2022-09-11T07:00:17.904Z,76.83
2022-09-11T07:01:18.038Z,75.75
2022-09-11T07:02:17.940Z,74.85
2022-09-11T07:03:17.867Z,75.79
2022-09-11T07:04:17.882Z,76.49
2022-09-11T07:05:17.857Z,76.83
2022-09-11T07:06:17.849Z,77.67
2022-09-11T07:07:17.847Z,78.11
2022-09-11T07:08:21.790Z,79.11
2022-09-11T07:09:17.890Z,79.11
2022-09-11T07:10:17.823Z,79.02
2022-09-11T07:11:17.815Z,79.32
2022-09-11T07:12:17.814Z,79.42
2022-09-11T07:13:17.813Z,79.62
2022-09-11T07:14:17.782Z,79.82
2022-09-11T07:15:17.752Z,79.11
2022-09-11T07:16:17.793Z,79.18
2022-09-11T07:17:17.753Z,78.98
2022-09-11T07:18:17.747Z,78.58
2022-09-11T07:19:17.754Z,78.38
2022-09-11T07:20:17.725Z,78.58
2022-09-11T07:21:17.691Z,78.54
2022-09-11T07:22:17.688Z,78.64
2022-09-11T07:23:17.832Z,78.03
2022-09-11T07:24:17.690Z,77.33
2022-09-11T07:25:17.656Z,77.23
2022-09-11T07:26:17.711Z,77.94
2022-09-11T07:27:17.655Z,77.43
2022-09-11T07:28:17.714Z,77.47
2022-09-11T07:29:17.633Z,78.07
2022-09-11T07:30:17.642Z,77.87
2022-09-11T07:31:20.828Z,77.13
2022-09-11T07:32:17.586Z,77.63
2022-09-11T07:33:17.592Z,77.53
2022-09-11T07:34:17.581Z,77.59
2022-09-11T07:35:17.576Z,77.59
2022-09-11T07:36:17.549Z,76.76
2022-09-11T07:37:17.548Z,76.25
2022-09-11T07:38:17.533Z,75.55
2022-09-11T07:39:17.545Z,75.21
2022-09-11T07:40:17.586Z,75.62
2022-09-11T07:41:17.500Z,74.21
2022-09-11T07:42:17.508Z,74.21
2022-09-11T07:43:17.477Z,74.01
2022-09-11T07:44:17.505Z,73.61
2022-09-11T07:45:22.093Z,73.71
2022-09-11T07:46:17.444Z,74.41
2022-09-11T07:47:17.463Z,74.01
2022-09-11T07:48:17.420Z,73.71
2022-09-11T07:49:17.411Z,73.64
2022-09-11T07:50:17.421Z,74.95
2022-09-11T07:51:17.430Z,75.38
2022-09-11T07:52:17.379Z,75.89
2022-09-11T07:53:17.379Z,75.68
2022-09-11T07:54:17.391Z,75.99
2022-09-11T07:55:17.424Z,75.99
2022-09-11T07:56:17.337Z,75.15
2022-09-11T07:57:17.366Z,75.25
2022-09-11T07:58:17.338Z,75.35
2022-09-11T07:59:17.332Z,73.50
2022-09-11T08:00:17.346Z,74.11
2022-09-11T08:01:17.398Z,73.91
2022-09-11T08:02:17.324Z,74.57
2022-09-11T08:03:17.299Z,72.67
2022-09-11T08:04:17.257Z,73.27
2022-09-11T08:05:17.273Z,72.56
2022-09-11T08:06:21.904Z,72.67
2022-09-11T08:07:17.261Z,72.67
2022-09-11T08:08:17.211Z,72.83
2022-09-11T08:09:17.209Z,72.53
2022-09-11T08:10:27.310Z,72.13
2022-09-11T08:11:17.240Z,72.24
2022-09-11T08:12:17.286Z,72.87
2022-09-11T08:13:17.177Z,73.57
2022-09-11T08:14:17.160Z,73.07
2022-09-11T08:15:17.146Z,73.13
2022-09-11T08:16:17.205Z,72.63
2022-09-11T08:17:17.136Z,72.13
2022-09-11T08:18:17.106Z,71.93
2022-09-11T08:19:17.149Z,71.06
2022-09-11T08:20:17.096Z,71.77
2022-09-11T08:21:17.089Z,72.47
2022-09-11T08:22:17.061Z,71.47
2022-09-11T08:23:17.071Z,72.17
2022-09-11T08:24:17.040Z,71.16
2022-09-11T08:25:17.061Z,71.56
2022-09-11T08:26:17.022Z,71.86
2022-09-11T08:27:17.039Z,72.97
2022-09-11T08:28:17.023Z,71.66
2022-09-11T08:29:17.030Z,73.27
2022-09-11T08:30:16.992Z,72.60
2022-09-11T08:31:17.030Z,73.27
2022-09-11T08:32:16.964Z,73.10
2022-09-11T08:33:16.953Z,74.71
2022-09-11T08:34:16.980Z,72.80
2022-09-11T08:35:16.948Z,72.20
2022-09-11T08:36:16.951Z,72.80
2022-09-11T08:37:16.951Z,73.81
2022-09-11T08:38:16.907Z,72.30
2022-09-11T08:39:16.916Z,72.60
2022-09-11T08:40:16.916Z,72.50
2022-09-11T08:41:16.875Z,72.90
2022-09-11T08:42:17.309Z,73.50
2022-09-11T08:43:16.911Z,73.41
2022-09-11T08:44:16.853Z,73.30
2022-09-11T08:45:16.838Z,73.00
2022-09-11T08:46:16.825Z,73.27
2022-09-11T08:47:16.815Z,72.67
2022-09-11T08:48:16.834Z,71.77
2022-09-11T08:49:16.784Z,71.86
2022-09-11T08:50:16.787Z,71.66
2022-09-11T08:51:16.771Z,71.23
2022-09-11T08:52:16.765Z,70.83
2022-09-11T08:53:16.778Z,70.59
2022-09-11T08:54:16.793Z,70.29
2022-09-11T08:55:16.738Z,68.96
2022-09-11T08:56:16.727Z,69.16
2022-09-11T08:57:16.734Z,68.12
2022-09-11T08:58:16.699Z,68.62
2022-09-11T08:59:16.688Z,68.02
2022-09-11T09:00:16.698Z,67.72
2022-09-11T09:01:17.930Z,68.35
2022-09-11T09:02:16.683Z,69.46
2022-09-11T09:03:16.660Z,68.96
2022-09-11T09:04:16.643Z,68.76
2022-09-11T09:05:16.697Z,69.19
2022-09-11T09:06:16.670Z,69.19
2022-09-11T09:07:16.660Z,68.29
2022-09-11T09:08:16.599Z,68.26
2022-09-11T09:09:16.595Z,68.46
2022-09-11T09:10:16.619Z,69.16
2022-09-11T09:11:16.576Z,69.06
2022-09-11T09:12:16.565Z,68.96
2022-09-11T09:13:16.545Z,68.46
2022-09-11T09:14:16.609Z,69.26
2022-09-11T09:15:16.542Z,68.15
2022-09-11T09:16:16.599Z,69.62
2022-09-11T09:17:16.495Z,69.62
2022-09-11T09:18:16.498Z,68.62
2022-09-11T09:19:16.506Z,67.32
2022-09-11T09:20:16.503Z,68.22
2022-09-11T09:21:16.454Z,67.12
2022-09-11T09:22:16.473Z,67.76
2022-09-11T09:23:16.446Z,68.05
2022-09-11T09:24:16.448Z,68.46
2022-09-11T09:25:16.436Z,68.79
2022-09-11T09:26:16.486Z,69.19
2022-09-11T09:27:16.414Z,70.19
2022-09-11T09:28:16.447Z,70.89
2022-09-11T09:29:16.369Z,69.79
2022-09-11T09:30:16.449Z,70.63
2022-09-11T09:31:16.419Z,71.03
2022-09-11T09:32:16.367Z,70.53
2022-09-11T09:33:16.365Z,71.16
2022-09-11T09:34:16.349Z,71.36
2022-09-11T09:35:16.351Z,70.96
2022-09-11T09:36:16.313Z,71.77
2022-09-11T09:37:16.301Z,71.06
2022-09-11T09:38:18.678Z,73.37
2022-09-11T09:39:16.282Z,71.77
2022-09-11T09:40:16.362Z,71.86
2022-09-11T09:41:16.294Z,72.37
2022-09-11T09:42:16.239Z,71.66
2022-09-11T09:43:16.251Z,72.06
2022-09-11T09:44:19.478Z,73.47
2022-09-11T09:45:16.236Z,73.57
2022-09-11T09:46:16.249Z,72.60
2022-09-11T09:47:16.197Z,72.80
2022-09-11T09:48:16.173Z,71.50
2022-09-11T09:49:16.186Z,72.20
2022-09-11T09:50:16.226Z,72.40
2022-09-11T09:51:16.147Z,74.01
2022-09-11T09:52:16.188Z,73.00
2022-09-11T09:53:16.148Z,73.41
2022-09-11T09:54:16.151Z,73.57
2022-09-11T09:55:16.128Z,73.07
2022-09-11T09:56:16.118Z,71.77
2022-09-11T09:57:16.093Z,71.77
2022-09-11T09:58:16.063Z,72.17
2022-09-11T09:59:16.089Z,71.53
2022-09-11T10:00:16.107Z,71.09
2022-09-11T10:01:18.068Z,69.99
2022-09-11T10:02:16.106Z,69.99
2022-09-11T10:03:16.033Z,69.86
2022-09-11T10:04:16.031Z,69.99
2022-09-11T10:05:16.037Z,70.19
2022-09-11T10:06:15.987Z,70.69
2022-09-11T10:07:16.011Z,69.49
2022-09-11T10:08:15.961Z,69.69
2022-09-11T10:09:16.011Z,70.09
2022-09-11T10:10:15.971Z,69.89
2022-09-11T10:11:15.941Z,72.24
2022-09-11T10:12:15.944Z,72.03
2022-09-11T10:13:19.853Z,72.33
2022-09-11T10:14:34.223Z,72.56
2022-09-11T10:15:15.900Z,73.37
2022-09-11T10:16:15.904Z,73.07
2022-09-11T10:17:15.871Z,73.41
2022-09-11T10:18:15.885Z,73.71
2022-09-11T10:19:15.872Z,74.81
2022-09-11T10:20:15.928Z,72.30
2022-09-11T10:21:15.846Z,72.40
2022-09-11T10:22:15.817Z,72.60
2022-09-11T10:23:15.811Z,72.80
2022-09-11T10:24:15.822Z,72.00
2022-09-11T10:25:15.807Z,71.20
2022-09-11T10:26:15.826Z,72.30
2022-09-11T10:27:19.776Z,71.90
2022-09-11T10:28:15.773Z,71.50
2022-09-11T10:29:15.815Z,71.40
2022-09-11T10:30:15.806Z,71.00
2022-09-11T10:31:15.861Z,71.70
2022-09-11T10:32:15.731Z,71.00
2022-09-11T10:33:15.707Z,71.00
2022-09-11T10:34:15.720Z,71.60
2022-09-11T10:35:15.694Z,70.66
2022-09-11T10:36:15.690Z,71.50
2022-09-11T10:37:15.673Z,70.86
2022-09-11T10:38:15.673Z,72.47
2022-09-11T10:39:15.674Z,71.97
2022-09-11T10:40:15.751Z,72.06
2022-09-11T10:41:15.633Z,71.16
2022-09-11T10:42:15.611Z,70.26
2022-09-11T10:43:15.611Z,72.56
2022-09-11T10:44:15.604Z,70.66
2022-09-11T10:45:15.587Z,70.12
2022-09-11T10:46:15.566Z,69.62
2022-09-11T10:47:15.591Z,70.19
2022-09-11T10:48:15.544Z,69.66
2022-09-11T10:49:15.556Z,67.96
2022-09-11T10:50:15.540Z,67.02
2022-09-11T10:51:15.520Z,66.82
2022-09-11T10:52:15.502Z,65.89
2022-09-11T10:53:15.502Z,65.75
2022-09-11T10:54:15.521Z,65.25
2022-09-11T10:55:15.487Z,65.36
2022-09-11T10:56:15.488Z,65.25
2022-09-11T10:57:15.488Z,65.09
2022-09-11T10:58:15.461Z,65.05
2022-09-11T10:59:15.484Z,65.45
2022-09-11T11:00:15.434Z,64.78
2022-09-11T11:01:15.457Z,65.16
2022-09-11T11:02:15.453Z,65.45
2022-09-11T11:03:15.395Z,64.95
2022-09-11T11:04:15.393Z,64.65
2022-09-11T11:05:15.407Z,64.75
2022-09-11T11:06:15.393Z,65.55
2022-09-11T11:07:15.364Z,64.95
2022-09-11T11:08:15.365Z,65.09
2022-09-11T11:09:15.343Z,65.28
2022-09-11T11:10:15.336Z,65.39
2022-09-11T11:11:15.982Z,64.69
2022-09-11T11:12:15.298Z,65.28
2022-09-11T11:13:15.319Z,65.82
2022-09-11T11:14:15.296Z,65.31
2022-09-11T11:15:15.337Z,64.59
2022-09-11T11:16:15.285Z,64.18
2022-09-11T11:17:15.255Z,64.98
2022-09-11T11:18:15.253Z,64.89
2022-09-11T11:19:15.258Z,65.39
2022-09-11T11:20:15.216Z,64.09
2022-09-11T11:21:15.247Z,64.69
2022-09-11T11:22:15.212Z,64.09
2022-09-11T11:23:16.606Z,63.48
2022-09-11T11:24:15.207Z,62.98
2022-09-11T11:25:15.201Z,64.89
2022-09-11T11:26:15.197Z,64.18
2022-09-11T11:27:15.146Z,63.18
2022-09-11T11:28:15.147Z,64.48
2022-09-11T11:29:15.126Z,64.69
2022-09-11T11:30:15.121Z,63.28
2022-09-11T11:31:15.220Z,61.35
2022-09-11T11:32:15.100Z,61.15
2022-09-11T11:33:15.090Z,59.95
2022-09-11T11:34:15.091Z,59.85
2022-09-11T11:35:15.106Z,59.22
2022-09-11T11:36:15.080Z,58.92
2022-09-11T11:37:15.059Z,58.72
2022-09-11T11:38:15.070Z,59.22
2022-09-11T11:39:15.030Z,59.02
2022-09-11T11:40:15.065Z,58.89
2022-09-11T11:41:15.006Z,59.69
2022-09-11T11:42:15.781Z,59.72
2022-09-11T11:43:15.045Z,58.82
2022-09-11T11:44:14.974Z,58.02
2022-09-11T11:45:14.968Z,57.92
2022-09-11T11:46:16.626Z,58.22
2022-09-11T11:47:14.946Z,58.62
2022-09-11T11:48:14.944Z,58.72
2022-09-11T11:49:14.934Z,58.92
2022-09-11T11:50:14.928Z,59.15
2022-09-11T11:51:14.946Z,59.45
2022-09-11T11:52:14.890Z,59.55
2022-09-11T11:53:14.928Z,59.45
2022-09-11T11:54:14.886Z,60.25
2022-09-11T11:55:14.869Z,60.15
2022-09-11T11:56:14.869Z,60.85
2022-09-11T11:57:14.846Z,61.08
2022-09-11T11:58:14.857Z,61.58
2022-09-11T11:59:14.818Z,61.88
2022-09-11T12:00:17.528Z,61.08
2022-09-11T12:01:14.799Z,61.68
2022-09-11T12:02:14.806Z,61.61
2022-09-11T12:03:14.811Z,62.21
2022-09-11T12:04:14.790Z,62.92
2022-09-11T12:05:14.764Z,62.81
2022-09-11T12:06:14.858Z,62.71
2022-09-11T12:07:14.753Z,62.94
2022-09-11T12:08:14.738Z,63.84
2022-09-11T12:09:14.735Z,63.51
2022-09-11T12:10:14.753Z,63.71
2022-09-11T12:11:14.696Z,64.12
2022-09-11T12:12:14.716Z,64.31
2022-09-11T12:13:14.675Z,63.61
2022-09-11T12:14:14.666Z,63.21
2022-09-11T12:15:14.720Z,63.21
2022-09-11T12:16:14.740Z,64.01
2022-09-11T12:17:14.673Z,64.81
2022-09-11T12:18:14.631Z,65.19
2022-09-11T12:19:14.623Z,65.48
2022-09-11T12:20:14.616Z,65.42
2022-09-11T12:21:14.616Z,65.31
2022-09-11T12:22:14.596Z,66.02
2022-09-11T12:23:14.635Z,66.89
2022-09-11T12:24:14.582Z,65.69
2022-09-11T12:25:14.610Z,64.78
2022-09-11T12:26:14.544Z,65.48
2022-09-11T12:27:14.538Z,65.59
2022-09-11T12:28:16.174Z,64.59
2022-09-11T12:29:14.529Z,63.98
2022-09-11T12:30:14.502Z,62.45
2022-09-11T12:31:14.543Z,61.75
2022-09-11T12:32:14.484Z,61.15
2022-09-11T12:33:14.484Z,61.45
2022-09-11T12:34:16.081Z,60.85
2022-09-11T12:35:14.442Z,60.85
2022-09-11T12:36:14.461Z,60.82
2022-09-11T12:37:16.036Z,60.92
2022-09-11T12:38:14.449Z,60.82
2022-09-11T12:39:14.409Z,60.52
2022-09-11T12:40:14.505Z,60.29
2022-09-11T12:41:14.418Z,59.99
2022-09-11T12:42:14.387Z,60.39
2022-09-11T12:43:15.983Z,60.36
2022-09-11T12:44:14.357Z,59.66
2022-09-11T12:45:14.345Z,59.56
2022-09-11T12:46:14.353Z,59.06
2022-09-11T12:47:14.356Z,59.19
2022-09-11T12:48:14.331Z,59.47
2022-09-11T12:49:22.883Z,59.47
2022-09-11T12:50:14.335Z,59.56
2022-09-11T12:51:14.301Z,58.86
2022-09-11T12:52:14.281Z,58.86